• Join FlightAware (Why Join?)
  • Login
  • US Flag 
05:24PM EDT


 

Airport Tracker/Info


-or-


 

Live Flight TrackerFlight Track Log ✈ SWA1004 ✈ 09-Nov-2013 ✈ KLAS - KHOU

Flight Track Log - Related Links

Times and Time Zones

All times are in EST time to prevent confusion due to time zone crossing. See the SWA1004 flight status page for this flight to view local times or setup timezone preferences in your user account.

Time Position Orientation Groundspeed Altitude Reporting Facility
EST Latitude Longitude Course Direction KTS MPH feet Rate Location/Type
02:46PM 36.0760 -115.1810 269° West 183 211 3,400  Level FlightAware
02:46PM 36.0760 -115.1900 270° West 194 223 3,600 2,100 Climbing FlightAware
02:47PM 36.0710 -115.2430 263° West 223 257 5,300 2,220 Climbing FlightAware
02:47PM 36.0500 -115.2660 222° Southwest 249 287 6,200 2,400 Climbing FlightAware
02:47PM 36.0220 -115.2780 199° South 256 295 7,300 2,640 Climbing FlightAware
02:48PM 35.9940 -115.2900 199° South 276 318 8,400 2,760 Climbing FlightAware
02:48PM 35.9680 -115.2990 196° South 278 320 9,400 2,460 Climbing FlightAware
02:49PM 35.9210 -115.2690 153° Southeast 320 368 10,900 2,100 Climbing FlightAware
02:49PM 35.9100 -115.2230 106° East 347 399 11,700 2,340 Climbing FlightAware
02:50PM 35.9140 -115.0580 88° East 383 441 15,000 2,520 Climbing FlightAware
02:51PM 35.9150 -114.9660 89° East 392 451 16,800 2,400 Climbing FlightAware
02:52PM 35.9170 -114.8310 89° East 410 472 19,000 2,220 Climbing FlightAware
02:53PM 35.9180 -114.6970 89° East 423 487 21,100 2,280 Climbing FlightAware
02:54PM 35.9190 -114.6200 89° East 423 487 22,400 2,100 Climbing FlightAware
02:54PM 35.9200 -114.5340 89° East 431 496 23,500 1,680 Climbing FlightAware
02:55PM 35.9210 -114.3840 89° East 447 514 25,100 1,560 Climbing FlightAware
02:56PM 35.9220 -114.2510 89° East 456 525 26,500 1,560 Climbing FlightAware
02:57PM 35.9190 -114.1840 93° East 455 524 27,200 1,560 Climbing FlightAware
02:57PM 35.8980 -114.1170 111° Southeast 452 520 27,900 1,380 Climbing FlightAware
02:58PM 35.8450 -113.9980 119° Southeast 459 528 29,100 1,320 Climbing FlightAware
02:59PM 35.7810 -113.8600 120° Southeast 464 534 30,400 1,200 Climbing FlightAware
02:59PM 35.7420 -113.7780 120° Southeast 470 541 31,100 1,140 Climbing FlightAware
03:00PM 35.6790 -113.6430 120° Southeast 474 545 32,200 1,140 Climbing FlightAware
03:01PM 35.6450 -113.5720 120° Southeast 475 547 32,800 1,200 Climbing FlightAware
03:02PM 35.6040 -113.4860 120° Southeast 473 544 33,600 780 Climbing FlightAware
03:02PM 35.5470 -113.3660 120° Southeast 471 542 34,000 180 Climbing FlightAware
03:03PM 35.4910 -113.2470 120° Southeast 470 541 34,000 300 Level FlightAware
03:04PM 35.4330 -113.1270 121° Southeast 467 537 34,600 900 Climbing FlightAware
03:05PM 35.3770 -113.0100 120° Southeast 463 533 35,600 960 Climbing FlightAware
03:06PM 35.3200 -112.8910 120° Southeast 465 535 36,300 660 Climbing FlightAware
03:07PM 35.2500 -112.7470 121° Southeast 468 539 37,000 420 Climbing FlightAware
03:07PM 35.2140 -112.6730 121° Southeast 467 537 37,000  Level FlightAware
03:08PM 35.1750 -112.5930 121° Southeast 465 535 37,000  Level FlightAware
03:09PM 35.1090 -112.4570 121° Southeast 464 534 37,000  Level FlightAware
03:10PM 35.0470 -112.3310 121° Southeast 463 533 37,000  Level FlightAware
03:11PM 34.9900 -112.2150 121° Southeast 464 534 37,000  Level FlightAware
03:11PM 34.9550 -112.1440 121° Southeast 464 534 37,000  Level FlightAware
03:12PM 34.9220 -112.0760 121° Southeast 463 533 37,000  Level FlightAware
03:12PM 34.8900 -112.0130 122° Southeast 463 533 37,000  Level FlightAware
03:13PM 34.8500 -111.9330 121° Southeast 464 534 37,000  Level FlightAware
03:14PM 34.7820 -111.7960 121° Southeast 465 535 37,000  Level FlightAware
03:15PM 34.7190 -111.6690 121° Southeast 466 536 37,000  Level FlightAware
03:16PM 34.6540 -111.5390 121° Southeast 466 536 37,000  Level FlightAware
03:17PM 34.5990 -111.4290 121° Southeast 467 537 37,000  Level FlightAware
03:17PM 34.5530 -111.3380 122° Southeast 468 539 37,000  Level FlightAware
03:18PM 34.4860 -111.2060 122° Southeast 468 539 37,000  Level FlightAware
03:19PM 34.4500 -111.1340 121° Southeast 468 539 37,000  Level FlightAware
03:19PM 34.4130 -111.0610 122° Southeast 467 537 37,000  Level FlightAware
03:20PM 34.3490 -110.9360 122° Southeast 468 539 37,000  Level FlightAware
03:21PM 34.3140 -110.8680 122° Southeast 468 539 37,000  Level FlightAware
03:21PM 34.2780 -110.7970 122° Southeast 469 540 37,000  Level FlightAware
03:22PM 34.2090 -110.6620 122° Southeast 468 539 37,000  Level FlightAware
03:23PM 34.1450 -110.5380 122° Southeast 468 539 37,000  Level FlightAware
03:24PM 34.1060 -110.4630 122° Southeast 468 539 37,000  Level FlightAware
03:25PM 34.0700 -110.3930 122° Southeast 467 537 37,000  Level FlightAware
03:26PM 34.0000 -110.2590 122° Southeast 465 535 37,000  Level FlightAware
03:26PM 33.9340 -110.1330 122° Southeast 464 534 37,000  Level FlightAware
03:27PM 33.8970 -110.0610 122° Southeast 463 533 37,000  Level FlightAware
03:28PM 33.8750 -110.0180 122° Southeast 463 533 37,000  Level FlightAware
03:28PM 33.8240 -109.9220 123° Southeast 463 533 37,000  Level FlightAware
03:29PM 33.7880 -109.8510 121° Southeast 463 533 37,000  Level FlightAware
03:30PM 33.7530 -109.7840 122° Southeast 463 533 37,000  Level FlightAware
03:30PM 33.7170 -109.7150 122° Southeast 463 533 37,000  Level FlightAware
03:31PM 33.6940 -109.6710 122° Southeast 463 533 37,000  Level FlightAware
03:31PM 33.6470 -109.5800 122° Southeast 463 533 37,000  Level FlightAware
03:32PM 33.5890 -109.4690 122° Southeast 463 533 37,000  Level FlightAware
03:34PM 33.4750 -109.1840 116° Southeast 479 551 37,000  Level FlightAware
03:34PM 33.4580 -109.0790 101° East 480 552 37,000  Level FlightAware
03:35PM 33.4450 -109.0010 101° East 480 552 37,000  Level FlightAware
03:35PM 33.4310 -108.9170 101° East 480 552 37,000  Level FlightAware
03:36PM 33.4090 -108.7840 101° East 480 552 37,000  Level FlightAware
03:37PM 33.3960 -108.7020 101° East 480 552 37,000  Level FlightAware
03:38PM 33.3830 -108.6220 101° East 480 552 37,000  Level FlightAware
03:39PM 33.3620 -108.4930 101° East 480 552 37,000  Level FlightAware
03:39PM 33.3490 -108.4130 101° East 480 552 37,000  Level FlightAware
03:40PM 33.3400 -108.3600 101° East 480 552 37,000  Level FlightAware
03:40PM 33.3230 -108.2530 101° East 480 552 37,000  Level FlightAware
03:41PM 33.3020 -108.1200 101° East 480 552 37,000  Level FlightAware
03:42PM 33.2800 -107.9870 101° East 480 552 37,000  Level FlightAware
03:43PM 33.2630 -107.8810 101° East 480 552 37,000  Level FlightAware
03:44PM 33.2450 -107.7720 101° East 480 552 37,000  Level FlightAware
03:45PM 33.2280 -107.6660 101° East 480 552 37,000  Level FlightAware
03:47PM 33.1685 -107.4091 105° East  Level Estimated
03:48PM 33.1335 -107.2597 106° East  Level Estimated
03:49PM 33.0984 -107.1103 106° East  Level Estimated
03:50PM 33.0631 -106.9611 106° East  Level Estimated
03:51PM 33.0277 -106.8120 106° East  Level Estimated
03:52PM 32.9920 -106.6630 106° East  Level Estimated
03:53PM 32.9562 -106.5141 106° East  Level Estimated
03:54PM 32.9202 -106.3654 106° East  Level Estimated
03:55PM 32.8841 -106.2167 106° East  Level Estimated
03:56PM 32.8477 -106.0682 106° East  Level Estimated
03:57PM 32.8112 -105.9198 106° East  Level Estimated
03:58PM 32.7745 -105.7716 106° East  Level Estimated
03:59PM 32.7376 -105.6234 106° East  Level Estimated
04:00PM 32.7006 -105.4754 107° East  Level Estimated
04:01PM 32.6634 -105.3275 107° East  Level Estimated
04:02PM 32.6260 -105.1798 107° East  Level Estimated
04:03PM 32.5884 -105.0321 107° East  Level Estimated
04:04PM 32.5507 -104.8846 107° East  Level Estimated
04:05PM 32.5128 -104.7372 107° East  Level Estimated
04:06PM 32.4747 -104.5899 107° East  Level Estimated
04:06PM 32.4390 -104.2260 107° East 479 551 37,000  Level FlightAware
04:07PM 32.4365 -104.4428 107° East  Level Estimated
04:07PM 32.4300 -104.1900 106° East 479 551 37,000  Level FlightAware
04:08PM 32.3850 -104.0270 108° East 480 552 37,000  Level FlightAware
04:08PM 32.3640 -103.9460 107° East 480 552 37,000  Level FlightAware
04:09PM 32.3440 -103.8690 107° East 480 552 37,000  Level FlightAware
04:10PM 32.3240 -103.7920 107° East 480 552 37,000  Level FlightAware
04:10PM 32.2970 -103.6900 107° East 480 552 37,000  Level FlightAware
04:11PM 32.2380 -103.5060 111° Southeast 485 558 37,000  Level FlightAware
04:12PM 32.2020 -103.3780 108° East 485 558 37,000  Level FlightAware
04:13PM 32.1610 -103.2340 109° East 486 559 37,000  Level FlightAware
04:13PM 32.1440 -103.1760 109° East 486 559 37,000  Level FlightAware
04:14PM 32.1070 -103.0440 108° East 487 560 37,000  Level FlightAware
04:15PM 32.0660 -102.9030 109° East 487 560 37,000  Level FlightAware
04:16PM 32.0460 -102.8320 108° East 487 560 37,000  Level FlightAware
04:16PM 32.0090 -102.7060 109° East 489 563 37,000  Level FlightAware
04:17PM 31.9770 -102.5950 109° East 492 566 37,000  Level FlightAware
04:18PM 31.9360 -102.4550 109° East 494 568 37,000  Level FlightAware
04:19PM 31.8890 -102.2950 109° East 495 570 37,000  Level FlightAware
04:20PM 31.8690 -102.2270 109° East 495 570 37,000  Level FlightAware
04:20PM 31.8430 -102.1400 109° East 493 567 37,000  Level FlightAware
04:21PM 31.8090 -102.0240 109° East 491 565 37,000  Level FlightAware
04:22PM 31.7630 -101.8680 109° East 490 564 37,000  Level FlightAware
04:22PM 31.7420 -101.7990 110° East 491 565 37,000  Level FlightAware
04:23PM 31.7170 -101.7150 109° East 492 566 37,000  Level FlightAware
04:24PM 31.6920 -101.6340 110° East 493 567 37,000  Level FlightAware
04:24PM 31.6560 -101.5140 109° East 495 570 37,000  Level FlightAware
04:25PM 31.6130 -101.3720 110° East 496 571 37,000  Level FlightAware
04:26PM 31.5880 -101.2890 109° East 496 571 37,000  Level FlightAware
04:26PM 31.5660 -101.2180 110° East 495 570 37,000  Level FlightAware
04:27PM 31.5410 -101.1350 109° East 493 567 37,000  Level FlightAware
04:28PM 31.5030 -101.0120 110° East 492 566 37,000  Level FlightAware
04:29PM 31.4630 -100.8800 110° East 490 564 37,000  Level FlightAware
04:29PM 31.4350 -100.7920 110° East 489 563 37,000  Level FlightAware
04:30PM 31.3960 -100.6660 110° East 489 563 37,000  Level FlightAware
04:31PM 31.3650 -100.5640 110° East 488 562 37,000  Level FlightAware
04:31PM 31.3280 -100.4480 110° East 487 560 37,000  Level FlightAware
04:32PM 31.2870 -100.3150 110° East 488 562 37,000  Level FlightAware
04:33PM 31.2660 -100.2490 110° East 488 562 37,000  Level FlightAware
04:34PM 31.2280 -100.1250 110° East 487 560 37,000  Level FlightAware
04:34PM 31.1880 -100.0010 111° Southeast 487 560 37,000  Level FlightAware
04:35PM 31.1560 -99.9010 110° East 487 560 37,000  Level FlightAware
04:36PM 31.1310 -99.8210 110° East 485 558 37,000  Level FlightAware
04:37PM 31.0790 -99.6580 110° East 483 556 37,000  Level FlightAware
04:38PM 31.0390 -99.5330 110° East 483 556 37,000  Level FlightAware
04:38PM 31.0090 -99.4410 111° Southeast 483 556 37,000  Level FlightAware
04:39PM 30.9670 -99.3100 110° East 483 556 37,000  Level FlightAware
04:40PM 30.9420 -99.2320 110° East 484 557 37,000  Level FlightAware
04:41PM 30.8980 -99.0970 111° Southeast 485 558 37,000  Level FlightAware
04:41PM 30.8690 -99.0100 111° Southeast 486 559 37,000  Level FlightAware
04:42PM 30.8240 -98.8720 111° Southeast 488 562 37,000  Level FlightAware
04:43PM 30.7910 -98.7260 105° East 501 577 37,000 -60 Level FlightAware
04:44PM 30.7780 -98.5870 96° East 500 575 36,900 -1,020 Descending FlightAware
04:45PM 30.7660 -98.4590 96° East 501 577 35,300 -1,980 Descending FlightAware
04:45PM 30.7580 -98.3730 96° East 511 588 34,300 -1,740 Descending FlightAware
04:46PM 30.7450 -98.2390 96° East 522 601 33,000 -840 Descending FlightAware
04:47PM 30.7330 -98.1110 96° East 517 595 33,000  Level FlightAware
04:48PM 30.7190 -97.9680 96° East 516 594 33,000  Level FlightAware
04:49PM 30.7030 -97.8140 97° East 515 593 33,000  Level FlightAware
04:49PM 30.6940 -97.7230 97° East 514 592 33,000  Level FlightAware
04:50PM 30.6810 -97.5950 97° East 514 592 33,000  Level FlightAware
04:51PM 30.6680 -97.4680 97° East 517 595 33,000 -360 Level FlightAware
04:52PM 30.6550 -97.3370 97° East 509 586 32,500 -1,320 Descending FlightAware
04:52PM 30.6450 -97.2400 97° East 502 578 31,200 -2,580 Descending FlightAware
04:53PM 30.6310 -97.1130 97° East 503 579 29,000 -2,940 Descending FlightAware
04:54PM 30.6180 -96.9900 97° East 501 577 26,700 -2,760 Descending FlightAware
04:55PM 30.6060 -96.8690 97° East 487 560 24,800 -2,400 Descending FlightAware
04:55PM 30.5970 -96.7930 98° East 478 550 23,700 -2,400 Descending FlightAware
04:56PM 30.5680 -96.6470 103° East 444 511 21,300 -2,340 Descending FlightAware
04:56PM 30.5400 -96.6080 130° Southeast 427 491 20,500 -2,100 Descending FlightAware
04:57PM 30.4580 -96.5090 134° Southeast 407 468 18,400 -2,340 Descending FlightAware
04:58PM 30.4010 -96.4400 134° Southeast 404 465 16,500 -2,400 Descending FlightAware
04:59PM 30.3290 -96.3530 134° Southeast 393 452 14,400 -2,160 Descending FlightAware
05:00PM 30.2860 -96.3020 134° Southeast 389 448 13,200 -2,280 Descending FlightAware
05:01PM 30.2130 -96.2170 135° Southeast 379 436 10,900 -1,740 Descending FlightAware
05:01PM 30.1720 -96.1880 149° Southeast 353 406 10,800 -120 Descending FlightAware
05:02PM 30.1130 -96.1540 154° Southeast 353 406 10,800  Level FlightAware
05:03PM 30.0590 -96.1020 140° Southeast 358 412 10,800  Level FlightAware
05:03PM 30.0140 -96.0530 137° Southeast 358 412 10,800  Level FlightAware
05:04PM 29.9500 -95.9850 137° Southeast 356 410 10,800 -540 Level FlightAware
05:05PM 29.8880 -95.9190 137° Southeast 350 403 9,900 -720 Descending FlightAware
05:05PM 29.8480 -95.8770 138° Southeast 317 365 9,800 -120 Descending FlightAware
05:06PM 29.8260 -95.8530 137° Southeast 304 350 9,800  Level FlightAware
05:06PM 29.7960 -95.8210 137° Southeast 300 345 9,800  Level FlightAware
05:07PM 29.7650 -95.7890 138° Southeast 297 342 9,800 -300 Level FlightAware
05:07PM 29.7360 -95.7580 137° Southeast 288 331 9,500 -900 Descending FlightAware
05:08PM 29.7110 -95.7320 138° Southeast 283 326 9,000 -1,200 Descending FlightAware
05:08PM 29.6890 -95.7080 137° Southeast 278 320 8,500 -1,320 Descending FlightAware
05:09PM 29.6630 -95.6810 138° Southeast 276 318 7,900 -1,440 Descending FlightAware
05:09PM 29.6330 -95.6490 137° Southeast 276 318 7,100 -1,560 Descending FlightAware
05:10PM 29.6070 -95.6220 138° Southeast 273 314 6,400 -1,500 Descending FlightAware
05:10PM 29.5800 -95.5940 138° Southeast 266 306 5,800 -1,140 Descending FlightAware
05:10PM 29.5540 -95.5660 137° Southeast 256 295 5,300 -1,080 Descending FlightAware
05:11PM 29.5500 -95.5620 139° Southeast 254 292 5,200 -600 Descending FlightAware
05:11PM 29.5260 -95.5250 127° Southeast 221 254 4,900 -900 Descending FlightAware
05:12PM 29.5230 -95.4900 96° East 211 243 4,200 -1,500 Descending FlightAware
05:12PM 29.5230 -95.4800 90° East 214 246 3,900 -1,440 Descending FlightAware
05:12PM 29.5300 -95.4440 77° East 194 223 3,200 -1,380 Descending FlightAware
05:13PM 29.5370 -95.4250 67° East 189 217 2,700 -1,320 Descending FlightAware
05:13PM 29.5470 -95.4070 57° Northeast 185 213 2,300 -1,260 Descending FlightAware
05:13PM 29.5570 -95.3910 54° Northeast 178 205 1,800 -960 Descending FlightAware
05:14PM 29.5690 -95.3730 53° Northeast 170 196 1,600 -480 Descending FlightAware
05:14PM 29.5760 -95.3610 56° Northeast 162 186 1,500 -360 Descending FlightAware
05:14PM 29.5840 -95.3470 57° Northeast 149 171 1,400 -600 Descending FlightAware
05:15PM 29.6000 -95.3280 46° Northeast 152 175 1,000 -840 Descending FlightAware
05:16PM 29.6140 -95.3130 43° Northeast 147 169 600 -900 Descending FlightAware
05:16PM 29.6270 -95.2980 45° Northeast 151 174 200 -960 Descending FlightAware
05:16PM 29.6390 -95.2860 41° Northeast 151 174 -600 Descending FlightAware
05:17PM 29.6490 -95.2740 46° Northeast 151 174  Level FlightAware